createdAt,value
2018-08-31T06:21:00.956Z,1016.18
2018-08-31T06:22:00.873Z,1016.14
2018-08-31T06:23:00.862Z,1016.10
2018-08-31T06:24:00.878Z,1016.15
2018-08-31T06:25:00.848Z,1016.12
2018-08-31T06:26:00.833Z,1016.10
2018-08-31T06:27:00.890Z,1016.13
2018-08-31T06:28:00.807Z,1016.19
2018-08-31T06:29:00.823Z,1016.16
2018-08-31T06:30:00.785Z,1016.18
2018-08-31T06:31:00.773Z,1016.17
2018-08-31T06:32:00.765Z,1016.16
2018-08-31T06:33:00.773Z,1016.17
2018-08-31T06:34:00.818Z,1016.16
2018-08-31T06:35:00.732Z,1016.21
2018-08-31T06:36:00.717Z,1016.14
2018-08-31T06:37:00.705Z,1016.17
2018-08-31T06:38:00.695Z,1016.19
2018-08-31T06:39:00.709Z,1016.24
2018-08-31T06:40:00.674Z,1016.25
2018-08-31T06:41:00.700Z,1016.24
2018-08-31T06:42:00.652Z,1016.25
2018-08-31T06:43:00.638Z,1016.24
2018-08-31T06:44:00.631Z,1016.23
2018-08-31T06:45:00.642Z,1016.24
2018-08-31T06:46:00.607Z,1016.24
2018-08-31T06:47:00.603Z,1016.31
2018-08-31T06:48:00.584Z,1016.32
2018-08-31T06:49:00.597Z,1016.29
2018-08-31T06:50:00.562Z,1016.31
2018-08-31T06:51:00.550Z,1016.30
2018-08-31T06:52:00.538Z,1016.23
2018-08-31T06:53:00.531Z,1016.23
2018-08-31T06:54:00.527Z,1016.21
2018-08-31T06:55:00.530Z,1016.21
2018-08-31T06:56:00.495Z,1016.23
2018-08-31T06:57:00.483Z,1016.26
2018-08-31T06:58:00.472Z,1016.25
2018-08-31T06:59:00.463Z,1016.24
2018-08-31T07:00:00.476Z,1016.25
2018-08-31T07:01:00.437Z,1016.27
2018-08-31T07:02:00.432Z,1016.28
2018-08-31T07:03:00.437Z,1016.27
2018-08-31T07:04:00.408Z,1016.28
2018-08-31T07:05:00.420Z,1016.26
2018-08-31T07:06:00.388Z,1016.26
2018-08-31T07:07:00.371Z,1016.27
2018-08-31T07:08:00.361Z,1016.31
2018-08-31T07:09:00.352Z,1016.31
2018-08-31T07:10:00.364Z,1016.28
2018-08-31T07:11:00.328Z,1016.35
2018-08-31T07:12:00.315Z,1016.35
2018-08-31T07:13:00.308Z,1016.35
2018-08-31T07:14:00.294Z,1016.41
2018-08-31T07:15:00.311Z,1016.37
2018-08-31T07:16:00.281Z,1016.35
2018-08-31T07:17:00.265Z,1016.41
2018-08-31T07:18:00.253Z,1016.40
2018-08-31T07:19:00.240Z,1016.40
2018-08-31T07:20:00.254Z,1016.44
2018-08-31T07:21:00.216Z,1016.47
2018-08-31T07:22:00.205Z,1016.47
2018-08-31T07:23:00.198Z,1016.46
2018-08-31T07:24:00.184Z,1016.45
2018-08-31T07:25:00.198Z,1016.45
2018-08-31T07:26:00.166Z,1016.44
2018-08-31T07:27:00.154Z,1016.45
2018-08-31T07:28:00.140Z,1016.43
2018-08-31T07:29:00.130Z,1016.47
2018-08-31T07:30:00.146Z,1016.47
2018-08-31T07:31:00.112Z,1016.48
2018-08-31T07:32:00.096Z,1016.45
2018-08-31T07:33:00.086Z,1016.46
2018-08-31T07:34:00.072Z,1016.45
2018-08-31T07:35:00.088Z,1016.48
2018-08-31T07:36:00.050Z,1016.49
2018-08-31T07:37:00.043Z,1016.44
2018-08-31T07:38:00.028Z,1016.47
2018-08-31T07:39:00.019Z,1016.48
2018-08-31T07:40:00.031Z,1016.48
2018-08-31T07:40:59.994Z,1016.48
2018-08-31T07:41:59.987Z,1016.47
2018-08-31T07:42:59.977Z,1016.47
2018-08-31T07:43:59.965Z,1016.48
2018-08-31T07:44:59.977Z,1016.49
2018-08-31T07:45:59.943Z,1016.47
2018-08-31T07:46:59.928Z,1016.47
2018-08-31T07:47:59.921Z,1016.51
2018-08-31T07:48:59.908Z,1016.53
2018-08-31T07:49:59.921Z,1016.48
2018-08-31T07:50:59.886Z,1016.46
2018-08-31T07:51:59.876Z,1016.52
2018-08-31T07:52:59.866Z,1016.47
2018-08-31T07:53:59.986Z,1016.51
2018-08-31T07:54:59.865Z,1016.51
2018-08-31T07:55:59.829Z,1016.52
2018-08-31T07:56:59.818Z,1016.55
2018-08-31T07:57:59.808Z,1016.57
2018-08-31T07:58:59.808Z,1016.56
2018-08-31T08:00:00.206Z,1016.58
2018-08-31T08:00:59.791Z,1016.59
2018-08-31T08:01:59.764Z,1016.60
2018-08-31T08:02:59.797Z,1016.61
2018-08-31T08:03:59.741Z,1016.59
2018-08-31T08:04:59.753Z,1016.60
2018-08-31T08:05:59.756Z,1016.66
2018-08-31T08:06:59.708Z,1016.65
2018-08-31T08:07:59.705Z,1016.69
2018-08-31T08:08:59.686Z,1016.71
2018-08-31T08:09:59.700Z,1016.73
2018-08-31T08:10:59.662Z,1016.69
2018-08-31T08:11:59.653Z,1016.63
2018-08-31T08:12:59.648Z,1016.65
2018-08-31T08:13:59.636Z,1016.66
2018-08-31T08:14:59.643Z,1016.69
2018-08-31T08:15:59.626Z,1016.65
2018-08-31T08:16:59.598Z,1016.63
2018-08-31T08:17:59.585Z,1016.59
2018-08-31T08:18:59.576Z,1016.62
2018-08-31T08:19:59.590Z,1016.67
2018-08-31T08:20:59.552Z,1016.64
2018-08-31T08:21:59.543Z,1016.68
2018-08-31T08:22:59.532Z,1016.65
2018-08-31T08:23:59.523Z,1016.60
2018-08-31T08:25:00.130Z,1016.64
2018-08-31T08:25:59.498Z,1016.63
2018-08-31T08:26:59.492Z,1016.59
2018-08-31T08:27:59.501Z,1016.63
2018-08-31T08:28:59.464Z,1016.65
2018-08-31T08:29:59.476Z,1016.62
2018-08-31T08:30:59.446Z,1016.63
2018-08-31T08:31:59.432Z,1016.68
2018-08-31T08:32:59.429Z,1016.68
2018-08-31T08:33:59.410Z,1016.68
2018-08-31T08:34:59.398Z,1016.71
2018-08-31T08:35:59.473Z,1016.73
2018-08-31T08:36:59.435Z,1016.69
2018-08-31T08:37:59.370Z,1016.61
2018-08-31T08:38:59.351Z,1016.59
2018-08-31T08:39:59.344Z,1016.61
2018-08-31T08:40:59.415Z,1016.58
2018-08-31T08:41:59.343Z,1016.62
2018-08-31T08:42:59.311Z,1016.64
2018-08-31T08:43:59.300Z,1016.61
2018-08-31T08:44:59.287Z,1016.59
2018-08-31T08:45:59.301Z,1016.59
2018-08-31T08:46:59.265Z,1016.66
2018-08-31T08:47:59.262Z,1016.69
2018-08-31T08:48:59.258Z,1016.68
2018-08-31T08:49:59.237Z,1016.69
2018-08-31T08:50:59.248Z,1016.65
2018-08-31T08:51:59.231Z,1016.64
2018-08-31T08:52:59.200Z,1016.67
2018-08-31T08:53:59.189Z,1016.65
2018-08-31T08:54:59.178Z,1016.65
2018-08-31T08:55:59.191Z,1016.61
2018-08-31T08:56:59.156Z,1016.60
2018-08-31T08:57:59.213Z,1016.58
2018-08-31T08:58:59.134Z,1016.60
2018-08-31T08:59:59.182Z,1016.60
2018-08-31T09:00:59.135Z,1016.64
2018-08-31T09:01:59.101Z,1016.60
2018-08-31T09:02:59.087Z,1016.58
2018-08-31T09:03:59.076Z,1016.58
2018-08-31T09:04:59.068Z,1016.57
2018-08-31T09:05:59.088Z,1016.60
2018-08-31T09:06:59.043Z,1016.59
2018-08-31T09:07:59.032Z,1016.62
2018-08-31T09:08:59.021Z,1016.60
2018-08-31T09:09:59.009Z,1016.62
2018-08-31T09:10:59.025Z,1016.65
2018-08-31T09:11:59.075Z,1016.66
2018-08-31T09:12:58.977Z,1016.67
2018-08-31T09:13:58.967Z,1016.66
2018-08-31T09:14:58.955Z,1016.58
2018-08-31T09:15:58.970Z,1016.56
2018-08-31T09:16:58.934Z,1016.54
2018-08-31T09:17:58.987Z,1016.56
2018-08-31T09:18:58.911Z,1016.54
2018-08-31T09:19:58.899Z,1016.54
2018-08-31T09:20:58.915Z,1016.46
2018-08-31T09:21:58.902Z,1016.47
2018-08-31T09:22:58.867Z,1016.44
2018-08-31T09:23:58.856Z,1016.50
2018-08-31T09:24:58.844Z,1016.47
2018-08-31T09:25:58.860Z,1016.48
2018-08-31T09:26:58.822Z,1016.44
2018-08-31T09:27:58.814Z,1016.46
2018-08-31T09:28:58.804Z,1016.43
2018-08-31T09:29:58.791Z,1016.45
2018-08-31T09:30:58.812Z,1016.46
2018-08-31T09:31:58.766Z,1016.45
2018-08-31T09:32:58.758Z,1016.45
2018-08-31T09:33:58.758Z,1016.40
2018-08-31T09:34:58.737Z,1016.33
2018-08-31T09:35:58.746Z,1016.33
2018-08-31T09:36:58.712Z,1016.35
2018-08-31T09:37:58.699Z,1016.38
2018-08-31T09:38:58.695Z,1016.32
2018-08-31T09:39:58.676Z,1016.38
2018-08-31T09:40:58.690Z,1016.39
2018-08-31T09:41:58.655Z,1016.40
2018-08-31T09:42:58.644Z,1016.37
2018-08-31T09:43:58.689Z,1016.36
2018-08-31T09:44:58.622Z,1016.36
2018-08-31T09:45:58.636Z,1016.36
2018-08-31T09:46:58.600Z,1016.39
2018-08-31T09:47:58.622Z,1016.35
2018-08-31T09:48:58.579Z,1016.26
2018-08-31T09:49:58.567Z,1016.25
2018-08-31T09:50:58.582Z,1016.24
2018-08-31T09:51:58.545Z,1016.25
2018-08-31T09:52:58.533Z,1016.27
2018-08-31T09:53:58.524Z,1016.27
2018-08-31T09:54:58.512Z,1016.24
2018-08-31T09:55:58.528Z,1016.24
2018-08-31T09:56:58.488Z,1016.25
2018-08-31T09:57:58.479Z,1016.23
2018-08-31T09:58:58.467Z,1016.23
2018-08-31T09:59:58.456Z,1016.20
2018-08-31T10:00:58.471Z,1016.16
2018-08-31T10:01:58.432Z,1016.22
2018-08-31T10:02:58.424Z,1016.16
2018-08-31T10:03:58.412Z,1016.19
2018-08-31T10:04:58.401Z,1016.19
2018-08-31T10:05:58.415Z,1016.22
2018-08-31T10:06:58.386Z,1016.20
2018-08-31T10:07:58.370Z,1016.22
2018-08-31T10:08:58.355Z,1016.22
2018-08-31T10:09:58.345Z,1016.24
2018-08-31T10:10:58.356Z,1016.25
2018-08-31T10:11:58.349Z,1016.24
2018-08-31T10:12:58.312Z,1016.21
2018-08-31T10:13:58.300Z,1016.15
2018-08-31T10:14:58.291Z,1016.18
2018-08-31T10:15:58.281Z,1016.23
2018-08-31T10:16:58.298Z,1016.17
2018-08-31T10:17:58.257Z,1016.24
2018-08-31T10:18:58.247Z,1016.19
2018-08-31T10:19:58.237Z,1016.21
2018-08-31T10:20:58.225Z,1016.21
2018-08-31T10:21:58.254Z,1016.21
2018-08-31T10:22:58.203Z,1016.20
2018-08-31T10:23:58.191Z,1016.22
2018-08-31T10:24:58.180Z,1016.21
2018-08-31T10:25:58.172Z,1016.14
2018-08-31T10:26:58.183Z,1016.20
2018-08-31T10:27:58.150Z,1016.20
2018-08-31T10:28:58.136Z,1016.19
2018-08-31T10:29:58.161Z,1016.24
2018-08-31T10:30:58.119Z,1016.24
2018-08-31T10:31:58.126Z,1016.18
2018-08-31T10:32:58.091Z,1016.22
2018-08-31T10:33:58.084Z,1016.19
2018-08-31T10:34:58.071Z,1016.17
2018-08-31T10:35:58.059Z,1016.16
2018-08-31T10:36:58.093Z,1016.13
2018-08-31T10:37:58.036Z,1016.18
2018-08-31T10:38:58.025Z,1016.16
2018-08-31T10:39:58.015Z,1016.16
2018-08-31T10:40:58.004Z,1016.10
2018-08-31T10:41:58.018Z,1016.11
2018-08-31T10:42:57.978Z,1016.08
2018-08-31T10:43:57.968Z,1016.10
2018-08-31T10:44:57.959Z,1016.06
2018-08-31T10:45:57.948Z,1016.09
2018-08-31T10:46:57.962Z,1016.08
2018-08-31T10:47:57.928Z,1016.04
2018-08-31T10:48:57.915Z,1016.06
2018-08-31T10:49:57.903Z,1016.05
2018-08-31T10:50:57.893Z,1016.04
2018-08-31T10:51:57.906Z,1016.05
2018-08-31T10:52:57.870Z,1016.07
2018-08-31T10:53:57.858Z,1016.09
2018-08-31T10:54:57.846Z,1016.04
2018-08-31T10:55:57.838Z,1016.05
2018-08-31T10:56:57.850Z,1016.06
2018-08-31T10:57:57.814Z,1016.09
2018-08-31T10:58:57.804Z,1016.04
2018-08-31T10:59:57.792Z,1016.01
2018-08-31T11:00:57.781Z,1016.05
2018-08-31T11:01:57.793Z,1016.02
2018-08-31T11:02:57.757Z,1016.01
2018-08-31T11:03:57.750Z,1016.08
2018-08-31T11:04:57.737Z,1016.01
2018-08-31T11:05:57.726Z,1015.95
2018-08-31T11:06:57.736Z,1015.96
2018-08-31T11:07:57.702Z,1016.03
2018-08-31T11:08:57.692Z,1016.00
2018-08-31T11:09:57.681Z,1016.02
2018-08-31T11:10:57.669Z,1016.07
2018-08-31T11:11:57.687Z,1015.99
2018-08-31T11:12:57.655Z,1016.00
2018-08-31T11:13:57.648Z,1015.96
2018-08-31T11:14:57.624Z,1015.94
2018-08-31T11:15:57.612Z,1015.98
2018-08-31T11:16:57.626Z,1015.96
2018-08-31T11:17:57.590Z,1015.99
2018-08-31T11:18:57.735Z,1015.98
2018-08-31T11:19:57.570Z,1015.97
2018-08-31T11:20:57.561Z,1015.98
2018-08-31T11:21:57.570Z,1015.98
2018-08-31T11:22:57.536Z,1016.01
2018-08-31T11:23:57.525Z,1016.09
2018-08-31T11:24:57.577Z,1016.03
2018-08-31T11:25:57.655Z,1016.00
2018-08-31T11:26:57.958Z,1016.00
2018-08-31T11:27:58.768Z,1015.99
2018-08-31T11:28:57.477Z,1015.98
2018-08-31T11:29:57.747Z,1015.97
2018-08-31T11:30:57.446Z,1016.01
2018-08-31T11:31:57.466Z,1015.98
2018-08-31T11:32:57.428Z,1016.01
2018-08-31T11:33:57.415Z,1015.98
2018-08-31T11:34:57.403Z,1015.97
2018-08-31T11:35:57.392Z,1015.94
2018-08-31T11:36:57.407Z,1015.91
2018-08-31T11:37:57.423Z,1015.87
2018-08-31T11:38:57.360Z,1016.03
2018-08-31T11:39:57.349Z,1015.92
2018-08-31T11:40:57.706Z,1015.92
2018-08-31T11:41:57.746Z,1015.85
2018-08-31T11:42:57.358Z,1015.89
2018-08-31T11:43:57.304Z,1015.88
2018-08-31T11:44:57.294Z,1015.90
2018-08-31T11:45:58.018Z,1015.89
2018-08-31T11:46:57.296Z,1015.89
2018-08-31T11:47:57.339Z,1015.87
2018-08-31T11:48:57.253Z,1015.87
2018-08-31T11:49:57.316Z,1015.91
2018-08-31T11:50:57.236Z,1015.87
2018-08-31T11:51:57.353Z,1015.85
2018-08-31T11:52:57.211Z,1015.88
2018-08-31T11:53:57.564Z,1015.87
2018-08-31T11:54:57.193Z,1015.75
2018-08-31T11:55:57.250Z,1015.75
2018-08-31T11:56:57.161Z,1015.70
2018-08-31T11:57:57.250Z,1015.76
2018-08-31T11:58:57.371Z,1015.72
2018-08-31T11:59:57.205Z,1015.80
2018-08-31T12:00:57.187Z,1015.71
2018-08-31T12:01:57.198Z,1015.74
2018-08-31T12:02:57.195Z,1015.79
2018-08-31T12:03:57.093Z,1015.79
2018-08-31T12:04:57.072Z,1015.72
2018-08-31T12:05:57.062Z,1015.75
2018-08-31T12:06:57.052Z,1015.70
2018-08-31T12:07:58.179Z,1015.70
2018-08-31T12:08:57.178Z,1015.68
2018-08-31T12:09:57.080Z,1015.64
2018-08-31T12:10:57.006Z,1015.68
2018-08-31T12:11:57.072Z,1015.68
2018-08-31T12:12:57.012Z,1015.68
2018-08-31T12:13:57.374Z,1015.72
2018-08-31T12:14:56.962Z,1015.71
2018-08-31T12:15:56.951Z,1015.70
2018-08-31T12:16:57.008Z,1015.61
2018-08-31T12:17:58.162Z,1015.63
2018-08-31T12:18:57.180Z,1015.63
2018-08-31T12:19:56.930Z,1015.60
2018-08-31T12:20:57.246Z,1015.63
2018-08-31T12:21:56.978Z,1015.61
2018-08-31T12:23:01.248Z,1015.69
2018-08-31T12:23:57.413Z,1015.62
2018-08-31T12:24:56.924Z,1015.59
2018-08-31T12:25:58.089Z,1015.57
2018-08-31T12:26:57.830Z,1015.62
2018-08-31T12:27:56.843Z,1015.62
2018-08-31T12:28:56.907Z,1015.60
2018-08-31T12:29:57.502Z,1015.57
2018-08-31T12:30:56.786Z,1015.56
2018-08-31T12:31:57.190Z,1015.56
2018-08-31T12:32:56.787Z,1015.60
2018-08-31T12:33:59.239Z,1015.56
2018-08-31T12:34:57.372Z,1015.54
2018-08-31T12:35:57.015Z,1015.62
2018-08-31T12:36:56.719Z,1015.64
2018-08-31T12:37:56.861Z,1015.68
2018-08-31T12:38:56.752Z,1015.61
2018-08-31T12:39:56.687Z,1015.58
2018-08-31T12:40:56.678Z,1015.54
2018-08-31T12:41:56.683Z,1015.57
2018-08-31T12:42:56.684Z,1015.54
2018-08-31T12:43:56.842Z,1015.54
2018-08-31T12:44:56.637Z,1015.51
2018-08-31T12:45:56.625Z,1015.54
2018-08-31T12:46:56.810Z,1015.55
2018-08-31T12:47:56.697Z,1015.55
2018-08-31T12:48:56.590Z,1015.55
2018-08-31T12:49:56.579Z,1015.59
2018-08-31T12:50:56.568Z,1015.57
2018-08-31T12:51:56.560Z,1015.59
2018-08-31T12:52:56.580Z,1015.58
2018-08-31T12:53:56.536Z,1015.64
2018-08-31T12:54:56.525Z,1015.63
2018-08-31T12:55:57.298Z,1015.64
2018-08-31T12:56:56.502Z,1015.68
2018-08-31T12:57:56.515Z,1015.64
2018-08-31T12:58:56.480Z,1015.65
2018-08-31T12:59:56.513Z,1015.68
2018-08-31T13:00:56.461Z,1015.68
2018-08-31T13:01:56.553Z,1015.61
2018-08-31T13:02:56.464Z,1015.54
2018-08-31T13:03:56.426Z,1015.64
2018-08-31T13:04:56.417Z,1015.61
2018-08-31T13:05:56.405Z,1015.65
2018-08-31T13:06:56.523Z,1015.63
2018-08-31T13:07:56.406Z,1015.59
2018-08-31T13:08:56.407Z,1015.62
2018-08-31T13:09:56.362Z,1015.60
2018-08-31T13:10:56.361Z,1015.59
2018-08-31T13:11:56.342Z,1015.59
2018-08-31T13:12:56.354Z,1015.52
2018-08-31T13:13:56.319Z,1015.49
2018-08-31T13:14:56.308Z,1015.50
2018-08-31T13:15:56.298Z,1015.54
2018-08-31T13:16:56.286Z,1015.55
2018-08-31T13:17:56.299Z,1015.54
2018-08-31T13:18:56.265Z,1015.48
2018-08-31T13:19:56.295Z,1015.57
2018-08-31T13:20:56.244Z,1015.50
2018-08-31T13:21:56.234Z,1015.48
2018-08-31T13:22:56.246Z,1015.43
2018-08-31T13:23:56.211Z,1015.47
2018-08-31T13:24:56.200Z,1015.46
2018-08-31T13:25:56.188Z,1015.51
2018-08-31T13:26:56.179Z,1015.48
2018-08-31T13:27:56.194Z,1015.50
2018-08-31T13:28:56.159Z,1015.47
2018-08-31T13:29:56.148Z,1015.51
2018-08-31T13:30:56.139Z,1015.47
2018-08-31T13:31:56.128Z,1015.44
2018-08-31T13:32:56.141Z,1015.45
2018-08-31T13:33:56.108Z,1015.38
2018-08-31T13:34:56.096Z,1015.41
2018-08-31T13:35:56.085Z,1015.46
2018-08-31T13:36:56.077Z,1015.37
2018-08-31T13:37:56.089Z,1015.37
2018-08-31T13:38:56.079Z,1015.43
2018-08-31T13:39:56.043Z,1015.43
2018-08-31T13:40:56.034Z,1015.46
2018-08-31T13:41:56.020Z,1015.48
2018-08-31T13:42:56.013Z,1015.47
2018-08-31T13:43:56.049Z,1015.43
2018-08-31T13:44:55.989Z,1015.48
2018-08-31T13:45:55.976Z,1015.41
2018-08-31T13:46:55.967Z,1015.45
2018-08-31T13:47:55.959Z,1015.44
2018-08-31T13:48:55.970Z,1015.41
2018-08-31T13:49:55.940Z,1015.40
2018-08-31T13:50:55.927Z,1015.41
2018-08-31T13:51:55.913Z,1015.46
2018-08-31T13:52:55.904Z,1015.46
2018-08-31T13:53:55.919Z,1015.49
2018-08-31T13:54:55.885Z,1015.48
2018-08-31T13:55:55.874Z,1015.33
2018-08-31T13:56:55.863Z,1015.39
2018-08-31T13:57:55.856Z,1015.44
2018-08-31T13:58:55.878Z,1015.46
2018-08-31T13:59:55.831Z,1015.46
2018-08-31T14:00:55.821Z,1015.55
2018-08-31T14:01:55.806Z,1015.48
2018-08-31T14:02:55.797Z,1015.51
2018-08-31T14:03:55.817Z,1015.48
2018-08-31T14:04:55.778Z,1015.47
2018-08-31T14:05:55.766Z,1015.50
2018-08-31T14:06:55.762Z,1015.51
2018-08-31T14:07:55.743Z,1015.55
2018-08-31T14:08:55.759Z,1015.52
2018-08-31T14:09:55.728Z,1015.53
2018-08-31T14:10:55.712Z,1015.56
2018-08-31T14:11:55.704Z,1015.60
2018-08-31T14:12:55.700Z,1015.67
2018-08-31T14:13:55.707Z,1015.51
2018-08-31T14:14:55.673Z,1015.46
2018-08-31T14:15:55.656Z,1015.47
2018-08-31T14:16:55.647Z,1015.45
2018-08-31T14:17:55.636Z,1015.50
2018-08-31T14:18:55.649Z,1015.53
2018-08-31T14:19:55.615Z,1015.50
2018-08-31T14:20:55.637Z,1015.49
2018-08-31T14:21:55.594Z,1015.59
2018-08-31T14:22:55.583Z,1015.51
2018-08-31T14:23:55.598Z,1015.55
2018-08-31T14:24:55.563Z,1015.55
2018-08-31T14:25:55.550Z,1015.52
2018-08-31T14:26:55.594Z,1015.54
2018-08-31T14:27:55.531Z,1015.56
2018-08-31T14:28:55.548Z,1015.53
2018-08-31T14:29:55.686Z,1015.54
2018-08-31T14:30:55.498Z,1015.50
2018-08-31T14:31:55.491Z,1015.53
2018-08-31T14:32:55.478Z,1015.53
2018-08-31T14:33:55.494Z,1015.53
2018-08-31T14:34:55.488Z,1015.55
2018-08-31T14:35:55.450Z,1015.54
2018-08-31T14:36:55.444Z,1015.69
2018-08-31T14:37:55.428Z,1015.68
2018-08-31T14:38:55.441Z,1015.68
2018-08-31T14:39:55.408Z,1015.71
2018-08-31T14:40:55.398Z,1015.69
2018-08-31T14:41:55.386Z,1015.71
2018-08-31T14:42:55.375Z,1015.67
2018-08-31T14:43:55.406Z,1015.69
2018-08-31T14:44:55.360Z,1015.69
2018-08-31T14:45:55.346Z,1015.72
2018-08-31T14:46:55.343Z,1015.70
2018-08-31T14:47:55.322Z,1015.70
2018-08-31T14:48:55.333Z,1015.66
2018-08-31T14:49:55.387Z,1015.67
2018-08-31T14:50:55.292Z,1015.74
2018-08-31T14:51:55.282Z,1015.68
2018-08-31T14:52:55.265Z,1015.67
2018-08-31T14:53:55.289Z,1015.49
2018-08-31T14:54:55.246Z,1015.48
2018-08-31T14:55:55.235Z,1015.46
2018-08-31T14:56:55.223Z,1015.42
2018-08-31T14:57:55.216Z,1015.43
2018-08-31T14:58:55.228Z,1015.48
2018-08-31T14:59:55.198Z,1015.51
2018-08-31T15:00:55.181Z,1015.48
2018-08-31T15:01:55.170Z,1015.54
2018-08-31T15:02:55.159Z,1015.62
2018-08-31T15:03:55.281Z,1015.60
2018-08-31T15:04:55.139Z,1015.51
2018-08-31T15:05:55.140Z,1015.52
2018-08-31T15:06:55.117Z,1015.44
2018-08-31T15:07:55.104Z,1015.60
2018-08-31T15:08:55.119Z,1015.60
2018-08-31T15:09:55.088Z,1015.63
2018-08-31T15:10:55.075Z,1015.60
2018-08-31T15:11:55.073Z,1015.46
2018-08-31T15:12:55.060Z,1015.43
2018-08-31T15:13:55.072Z,1015.49
2018-08-31T15:14:55.032Z,1015.51
2018-08-31T15:15:55.024Z,1015.43
2018-08-31T15:16:55.013Z,1015.44
2018-08-31T15:17:55.000Z,1015.46
2018-08-31T15:18:54.991Z,1015.48
2018-08-31T15:19:55.007Z,1015.43
2018-08-31T15:20:54.968Z,1015.47
2018-08-31T15:21:54.959Z,1015.43
2018-08-31T15:22:54.950Z,1015.42
2018-08-31T15:23:54.939Z,1015.48
2018-08-31T15:24:54.952Z,1015.45
2018-08-31T15:25:54.920Z,1015.45
2018-08-31T15:26:54.907Z,1015.43
2018-08-31T15:27:54.896Z,1015.45
2018-08-31T15:28:54.885Z,1015.45
2018-08-31T15:29:54.904Z,1015.44
2018-08-31T15:30:54.862Z,1015.46
2018-08-31T15:31:54.854Z,1015.49
2018-08-31T15:32:54.843Z,1015.50
2018-08-31T15:33:54.835Z,1015.46
2018-08-31T15:34:54.844Z,1015.41
2018-08-31T15:35:54.813Z,1015.43
2018-08-31T15:36:54.816Z,1015.42
2018-08-31T15:37:54.789Z,1015.45
2018-08-31T15:38:54.780Z,1015.57
2018-08-31T15:39:54.793Z,1015.54
2018-08-31T15:40:54.761Z,1015.53
2018-08-31T15:41:54.750Z,1015.51
2018-08-31T15:42:54.737Z,1015.48
2018-08-31T15:43:54.727Z,1015.45
2018-08-31T15:44:54.740Z,1015.44
2018-08-31T15:45:54.706Z,1015.39
2018-08-31T15:46:54.696Z,1015.36
2018-08-31T15:47:54.684Z,1015.37
2018-08-31T15:48:54.672Z,1015.40
2018-08-31T15:49:54.873Z,1015.35
2018-08-31T15:50:54.653Z,1015.37
2018-08-31T15:51:54.644Z,1015.33
2018-08-31T15:52:54.632Z,1015.34
2018-08-31T15:53:54.625Z,1015.39
2018-08-31T15:54:54.634Z,1015.41
2018-08-31T15:55:54.619Z,1015.40
2018-08-31T15:56:54.590Z,1015.41
2018-08-31T15:57:54.578Z,1015.42
2018-08-31T15:58:54.567Z,1015.38
2018-08-31T15:59:54.582Z,1015.36
2018-08-31T16:00:54.547Z,1015.42
2018-08-31T16:01:54.540Z,1015.39
2018-08-31T16:02:54.523Z,1015.41
2018-08-31T16:03:54.515Z,1015.43
2018-08-31T16:04:54.528Z,1015.40
2018-08-31T16:05:54.494Z,1015.43
2018-08-31T16:06:54.484Z,1015.42
2018-08-31T16:07:54.473Z,1015.42
2018-08-31T16:08:54.460Z,1015.47
2018-08-31T16:09:54.475Z,1015.48
2018-08-31T16:10:54.437Z,1015.47
2018-08-31T16:11:54.429Z,1015.51
2018-08-31T16:12:54.416Z,1015.50
2018-08-31T16:13:54.406Z,1015.48
2018-08-31T16:14:54.420Z,1015.46
2018-08-31T16:15:54.385Z,1015.49
2018-08-31T16:16:54.374Z,1015.53
2018-08-31T16:17:54.377Z,1015.58
2018-08-31T16:18:54.432Z,1015.50
2018-08-31T16:19:54.366Z,1015.55
2018-08-31T16:20:54.379Z,1015.52
2018-08-31T16:21:54.318Z,1015.52
2018-08-31T16:22:54.306Z,1015.52
2018-08-31T16:23:54.310Z,1015.48
2018-08-31T16:24:54.310Z,1015.48
2018-08-31T16:25:54.274Z,1015.48
2018-08-31T16:26:54.261Z,1015.45
2018-08-31T16:27:54.251Z,1015.53
2018-08-31T16:28:54.278Z,1015.50
2018-08-31T16:29:54.256Z,1015.52
2018-08-31T16:30:54.221Z,1015.46
2018-08-31T16:31:54.211Z,1015.48
2018-08-31T16:32:54.200Z,1015.46
2018-08-31T16:33:54.187Z,1015.44
2018-08-31T16:34:54.206Z,1015.42
2018-08-31T16:35:54.165Z,1015.50
2018-08-31T16:36:54.162Z,1015.50
2018-08-31T16:37:54.144Z,1015.49
2018-08-31T16:38:54.337Z,1015.52
2018-08-31T16:39:54.150Z,1015.58
2018-08-31T16:40:54.112Z,1015.51
2018-08-31T16:41:54.102Z,1015.58
2018-08-31T16:42:54.095Z,1015.58
2018-08-31T16:43:54.080Z,1015.55
2018-08-31T16:44:54.098Z,1015.62
2018-08-31T16:45:54.058Z,1015.58
2018-08-31T16:46:54.049Z,1015.63
2018-08-31T16:47:54.061Z,1015.64
2018-08-31T16:48:54.025Z,1015.62
2018-08-31T16:49:54.063Z,1015.58
2018-08-31T16:50:54.004Z,1015.59
2018-08-31T16:51:54.002Z,1015.62
2018-08-31T16:52:53.984Z,1015.64
2018-08-31T16:53:53.978Z,1015.58
2018-08-31T16:54:53.982Z,1015.64
2018-08-31T16:55:53.971Z,1015.62
2018-08-31T16:56:53.937Z,1015.60
2018-08-31T16:57:53.948Z,1015.57
2018-08-31T16:58:53.919Z,1015.58
2018-08-31T16:59:53.941Z,1015.61
2018-08-31T17:00:53.897Z,1015.61
2018-08-31T17:01:53.882Z,1015.62
2018-08-31T17:02:53.879Z,1015.60
2018-08-31T17:03:53.860Z,1015.58
2018-08-31T17:04:53.854Z,1015.58
2018-08-31T17:05:53.864Z,1015.60
2018-08-31T17:06:53.828Z,1015.64
2018-08-31T17:07:53.886Z,1015.65
2018-08-31T17:08:53.805Z,1015.66
2018-08-31T17:09:53.794Z,1015.70
2018-08-31T17:10:53.809Z,1015.73
2018-08-31T17:11:53.773Z,1015.71
2018-08-31T17:12:53.763Z,1015.70
2018-08-31T17:13:53.750Z,1015.72
2018-08-31T17:14:53.744Z,1015.69
2018-08-31T17:15:53.755Z,1015.70
2018-08-31T17:16:53.774Z,1015.70
2018-08-31T17:17:53.705Z,1015.72
2018-08-31T17:18:53.696Z,1015.74
2018-08-31T17:19:53.685Z,1015.77
2018-08-31T17:20:53.696Z,1015.78
2018-08-31T17:21:53.669Z,1015.79
2018-08-31T17:22:53.653Z,1015.78
2018-08-31T17:23:53.640Z,1015.76
2018-08-31T17:24:53.630Z,1015.76
2018-08-31T17:25:53.641Z,1015.79
2018-08-31T17:26:53.608Z,1015.75
2018-08-31T17:27:53.595Z,1015.77
2018-08-31T17:28:53.604Z,1015.80
2018-08-31T17:29:53.728Z,1015.78
2018-08-31T17:30:53.588Z,1015.80
2018-08-31T17:31:53.553Z,1015.76
2018-08-31T17:32:53.542Z,1015.82
2018-08-31T17:33:53.527Z,1015.80
2018-08-31T17:34:53.519Z,1015.85
2018-08-31T17:35:53.532Z,1015.83
2018-08-31T17:36:53.496Z,1015.82
2018-08-31T17:37:53.486Z,1015.79
2018-08-31T17:38:53.476Z,1015.82
2018-08-31T17:39:53.464Z,1015.82
2018-08-31T17:40:53.477Z,1015.81
2018-08-31T17:41:53.444Z,1015.90
2018-08-31T17:42:53.431Z,1015.82
2018-08-31T17:43:53.420Z,1015.85
2018-08-31T17:44:53.408Z,1015.87
2018-08-31T17:45:53.423Z,1015.87
2018-08-31T17:46:53.385Z,1015.90
2018-08-31T17:47:53.377Z,1015.99
2018-08-31T17:48:53.365Z,1015.98
2018-08-31T17:49:53.353Z,1016.03
2018-08-31T17:50:53.369Z,1016.04
2018-08-31T17:51:53.331Z,1016.04
2018-08-31T17:52:53.319Z,1016.04
2018-08-31T17:53:53.309Z,1016.03
2018-08-31T17:54:53.306Z,1016.04
2018-08-31T17:55:53.314Z,1016.04
2018-08-31T17:56:53.276Z,1016.01
2018-08-31T17:57:53.285Z,1016.02
2018-08-31T17:58:53.254Z,1016.05
2018-08-31T17:59:53.242Z,1016.06
2018-08-31T18:00:53.254Z,1016.08
2018-08-31T18:01:53.220Z,1016.10
2018-08-31T18:02:53.210Z,1016.13
2018-08-31T18:03:53.198Z,1016.14
2018-08-31T18:04:53.186Z,1016.18
2018-08-31T18:05:53.202Z,1016.11
2018-08-31T18:06:53.165Z,1016.17
2018-08-31T18:07:53.153Z,1016.17
2018-08-31T18:08:53.144Z,1016.19
2018-08-31T18:09:53.131Z,1016.19
2018-08-31T18:10:53.143Z,1016.17
2018-08-31T18:11:53.109Z,1016.24
2018-08-31T18:12:53.098Z,1016.23
2018-08-31T18:13:53.089Z,1016.23
2018-08-31T18:14:53.079Z,1016.28
2018-08-31T18:15:53.177Z,1016.30
2018-08-31T18:16:53.054Z,1016.31
2018-08-31T18:17:53.042Z,1016.25
2018-08-31T18:18:53.029Z,1016.29
2018-08-31T18:19:53.019Z,1016.31
2018-08-31T18:20:53.034Z,1016.32
2018-08-31T18:21:52.997Z,1016.28
2018-08-31T18:22:52.987Z,1016.30
2018-08-31T18:23:52.974Z,1016.30
2018-08-31T18:24:52.963Z,1016.32
2018-08-31T18:25:53.032Z,1016.31